Terminal Aerodrome Forecast
Issued by NWS Atlanta, GA

Home | Current Version | Previous Version | Text Only | Print | Product List | Glossary On
Versions: 1 2 3 4 5 6 7 8 9 10 11 12 13 14 15 16 17 18 19 20 21 22 23 24 25 26 27 28 29 30 31 32 33 34 35 36 37 38 39 40 41
000
FTUS42 KFFC 151100
TAFATL
TAF
KATL 151127Z 1512/1618 27010KT 6SM BR BKN006
     FM151400 30015G25KT 6SM -SHRA OVC010
     FM151600 32020G32KT P6SM BKN035
     FM151900 32020G35KT P6SM SCT150
     FM160300 34015G25KT P6SM SKC
     FM160700 35008KT P6SM SKC
     FM161100 04007KT P6SM SKC=

USA.gov is the U.S. government's official web portal to all federal, state and local government web resources and services.